Time;durP1;ratioP1;P1;durP2;ratioP2;P2;SDS_P1;SDS_P2;PMS_P1;PMS_P2;Temp;Humidity;BMP_temperature;BMP_pressure;BME280_temperature;BME280_humidity;BME280_pressure;Samples;Min_cycle;Max_cycle;Signal;HPM_P1;HPM_P2
2021/11/17 02:26:04;;;;;;;;;;;;;;;21.88;49.83;101446.53;2018688;29;722;-58
2021/11/17 02:27:19;;;;;;;;;;;;;;;21.85;50.73;101438.53;2018951;29;872;-57
2021/11/17 02:28:20;;;;;;;;;;;;;;;21.94;49.43;101448.13;2019039;29;1066;-57
2021/11/17 02:29:39;;;;;;;;;;;;;;;21.86;50.76;101444.78;2018929;29;921;-58
2021/11/17 02:30:58;;;;;;;;;;;;;;;21.91;50.88;101440.13;2018927;29;896;-57
2021/11/17 02:32:08;;;;;;;;;;;;;;;21.84;51.29;101443.94;2018686;29;922;-57
2021/11/17 02:33:12;;;;;;;;;;;;;;;21.90;50.71;101441.97;2018929;29;1134;-57
2021/11/17 02:34:27;;;;;;;;;;;;;;;21.85;51.24;101437.63;2018606;29;872;-58
2021/11/17 02:35:46;;;;;;;;;;;;;;;21.93;49.52;101430.19;2018816;29;945;-57
2021/11/17 02:37:01;;;;;;;;;;;;;;;21.94;50.89;101431.09;2018783;29;773;-57
2021/11/17 02:38:20;;;;;;;;;;;;;;;21.94;50.69;101428.38;2019834;29;1915;-57
2021/11/17 02:39:30;;;;;;;;;;;;;;;21.79;51.62;101427.00;2026557;29;721;-58
2021/11/17 02:40:46;;;;;;;;;;;;;;;21.79;49.91;101424.31;2026502;29;769;-57
2021/11/17 02:41:56;;;;;;;;;;;;;;;21.90;49.89;101424.88;2026494;29;1152;-56
2021/11/17 02:42:59;;;;;;;;;;;;;;;21.81;50.92;101425.16;2026287;29;1022;-58
2021/11/17 02:44:06;;;;;;;;;;;;;;;21.84;49.64;101415.19;2026013;29;811;-57
2021/11/17 02:45:18;;;;;;;;;;;;;;;21.89;49.48;101421.31;2058062;28;973;-57
2021/11/17 02:46:24;;;;;;;;;;;;;;;21.83;50.09;101423.28;2058045;28;784;-57
2021/11/17 02:47:30;;;;;;;;;;;;;;;21.87;49.46;101417.78;2058038;28;1017;-58
2021/11/17 02:48:49;;;;;;;;;;;;;;;21.91;50.32;101413.16;2075503;28;966;-57
2021/11/17 02:49:49;;;;;;;;;;;;;;;21.92;49.92;101412.25;2091556;28;1225;-57
2021/11/17 02:51:08;;;;;;;;;;;;;;;21.80;50.19;101404.50;2091461;28;771;-58
2021/11/17 02:52:15;;;;;;;;;;;;;;;21.82;50.25;101416.13;2091585;28;946;-57
2021/11/17 02:53:25;;;;;;;;;;;;;;;21.84;48.92;101412.47;2091559;28;1445;-57
2021/11/17 02:54:34;;;;;;;;;;;;;;;21.82;51.09;101410.75;2091453;28;855;-58
2021/11/17 02:55:37;;;;;;;;;;;;;;;21.86;51.15;101413.31;2091484;28;1005;-58
2021/11/17 02:56:37;;;;;;;;;;;;;;;21.76;51.35;101404.63;2091251;28;1223;-58
2021/11/17 02:57:37;;;;;;;;;;;;;;;21.76;50.23;101406.41;2091371;28;1910;-59
2021/11/17 02:58:56;;;;;;;;;;;;;;;21.79;49.93;101400.94;2091573;28;994;-57
2021/11/17 03:00:08;;;;;;;;;;;;;;;21.78;51.32;101401.88;2091456;28;1117;-57
2021/11/17 03:01:27;;;;;;;;;;;;;;;21.77;51.64;101406.41;2091471;28;803;-57
2021/11/17 03:02:46;;;;;;;;;;;;;;;21.81;52.06;101398.19;2091416;28;973;-58
2021/11/17 03:03:46;;;;;;;;;;;;;;;21.89;49.91;101397.03;2091524;28;1107;-58
2021/11/17 03:04:50;;;;;;;;;;;;;;;21.85;50.91;101398.06;2091363;28;1200;-57
2021/11/17 03:06:29;;;;;;;;;;;;;;;21.83;50.05;101399.94;2091193;28;879;-58
2021/11/17 03:07:29;;;;;;;;;;;;;;;21.74;50.77;101398.41;2057881;28;1179;-58
2021/11/17 03:09:04;;;;;;;;;;;;;;;21.73;50.29;101407.41;2057865;28;875;-57
2021/11/17 03:10:04;;;;;;;;;;;;;;;21.75;50.61;101405.56;2041964;29;1170;-57
2021/11/17 03:11:20;;;;;;;;;;;;;;;21.77;50.64;101403.69;2041966;29;1213;-58
2021/11/17 03:12:32;;;;;;;;;;;;;;;21.82;50.82;101402.66;2034013;29;1489;-59
2021/11/17 03:13:58;;;;;;;;;;;;;;;21.80;49.99;101400.00;2035561;29;867;-58
2021/11/17 03:15:04;;;;;;;;;;;;;;;21.77;50.75;101401.00;2039866;29;1983;-57
2021/11/17 03:16:16;;;;;;;;;;;;;;;21.72;49.60;101405.66;2041958;29;974;-57
2021/11/17 03:17:29;;;;;;;;;;;;;;;21.74;51.73;101403.78;2041908;29;1963;-59
2021/11/17 03:18:29;;;;;;;;;;;;;;;21.71;50.53;101397.59;2042013;29;1140;-57
2021/11/17 03:19:29;;;;;;;;;;;;;;;21.73;50.34;101396.63;2042008;29;951;-58
2021/11/17 03:20:32;;;;;;;;;;;;;;;21.76;51.17;101396.53;2041904;29;959;-58
2021/11/17 03:21:32;;;;;;;;;;;;;;;21.73;50.92;101401.13;2041970;29;962;-58
2021/11/17 03:22:32;;;;;;;;;;;;;;;21.72;50.72;101397.56;2041941;29;1006;-57
2021/11/17 03:23:39;;;;;;;;;;;;;;;21.77;50.63;101398.31;2041731;29;948;-57
2021/11/17 03:24:43;;;;;;;;;;;;;;;21.78;50.69;101396.47;2042046;29;1078;-57
2021/11/17 03:26:01;;;;;;;;;;;;;;;21.84;49.30;101395.41;2041923;29;1064;-58
2021/11/17 03:27:14;;;;;;;;;;;;;;;21.87;50.71;101392.59;2042019;29;962;-57
2021/11/17 03:28:16;;;;;;;;;;;;;;;21.79;50.35;101390.16;2042015;29;994;-57
2021/11/17 03:29:23;;;;;;;;;;;;;;;21.77;49.51;101398.31;2042030;29;966;-57
2021/11/17 03:30:24;;;;;;;;;;;;;;;21.76;50.27;101395.63;2042014;29;797;-60
2021/11/17 03:31:36;;;;;;;;;;;;;;;21.73;50.48;101395.72;2041700;29;1064;-57
2021/11/17 03:32:55;;;;;;;;;;;;;;;21.69;50.22;101397.66;2041942;29;1090;-57
2021/11/17 03:34:21;;;;;;;;;;;;;;;21.75;50.73;101402.84;2042012;29;946;-58
2021/11/17 03:35:34;;;;;;;;;;;;;;;21.72;50.45;101402.94;2026252;29;1131;-59
2021/11/17 03:36:49;;;;;;;;;;;;;;;21.71;51.58;101408.38;2026311;29;852;-57
2021/11/17 03:37:52;;;;;;;;;;;;;;;21.76;51.25;101409.13;2026198;29;1906;-57
2021/11/17 03:38:52;;;;;;;;;;;;;;;21.76;50.96;101399.22;2026161;29;1663;-59
2021/11/17 03:40:03;;;;;;;;;;;;;;;21.68;51.74;101403.97;2026138;29;931;-57
2021/11/17 03:41:27;;;;;;;;;;;;;;;21.71;51.71;101402.97;2026342;29;1060;-57
2021/11/17 03:42:27;;;;;;;;;;;;;;;21.64;51.58;101402.28;2026101;29;1196;-58
2021/11/17 03:43:36;;;;;;;;;;;;;;;21.67;50.36;101404.00;2026209;29;887;-59
2021/11/17 03:44:36;;;;;;;;;;;;;;;21.72;50.99;101399.34;2036151;28;1054;-57
2021/11/17 03:45:36;;;;;;;;;;;;;;;21.73;50.96;101402.03;2057835;28;1023;-58
2021/11/17 03:46:55;;;;;;;;;;;;;;;21.72;50.96;101399.34;2057607;28;1171;-57
2021/11/17 03:48:01;;;;;;;;;;;;;;;21.80;49.63;101405.41;2057771;28;954;-58
2021/11/17 03:49:13;;;;;;;;;;;;;;;21.77;51.24;101402.78;2057804;28;887;-57
2021/11/17 03:50:20;;;;;;;;;;;;;;;21.70;50.39;101393.13;2057842;28;1040;-59
2021/11/17 03:51:35;;;;;;;;;;;;;;;21.74;50.08;101359.75;2057646;28;1013;-58
2021/11/17 03:52:44;;;;;;;;;;;;;;;21.68;51.65;101355.44;2057832;28;966;-58
2021/11/17 03:54:00;;;;;;;;;;;;;;;21.69;51.65;101349.09;2057856;28;987;-58
2021/11/17 03:55:06;;;;;;;;;;;;;;;21.70;50.61;101349.97;2057812;28;939;-58
2021/11/17 03:56:26;;;;;;;;;;;;;;;21.72;51.04;101348.13;2050000;28;1174;-57
2021/11/17 03:57:27;;;;;;;;;;;;;;;21.70;49.91;101320.31;2053271;28;1911;-57
2021/11/17 03:58:35;;;;;;;;;;;;;;;21.71;50.45;101346.34;2059311;28;847;-58
2021/11/17 03:59:36;;;;;;;;;;;;;;;21.75;49.92;101408.25;2059064;28;1082;-57
2021/11/17 04:00:49;;;;;;;;;;;;;;;21.72;50.84;101394.84;2059114;28;855;-58
2021/11/17 04:01:58;;;;;;;;;;;;;;;21.77;50.41;101390.22;2059358;28;804;-59
2021/11/17 04:03:17;;;;;;;;;;;;;;;21.65;50.73;101379.78;2059316;28;1176;-58
2021/11/17 04:04:23;;;;;;;;;;;;;;;21.66;51.04;101383.34;2059296;28;914;-57
2021/11/17 04:05:38;;;;;;;;;;;;;;;21.71;50.56;101374.22;2059085;28;962;-57
2021/11/17 04:06:38;;;;;;;;;;;;;;;21.71;51.11;101378.72;2059168;28;1102;-59
2021/11/17 04:07:47;;;;;;;;;;;;;;;21.71;50.85;101376.00;2059212;28;852;-58
2021/11/17 04:08:59;;;;;;;;;;;;;;;21.65;51.06;101377.09;2059162;28;1505;-57
2021/11/17 04:10:12;;;;;;;;;;;;;;;21.67;51.12;101377.03;2059223;28;875;-58
2021/11/17 04:11:28;;;;;;;;;;;;;;;21.67;50.91;101355.47;2059330;28;994;-58
2021/11/17 04:12:40;;;;;;;;;;;;;;;21.62;50.76;101353.78;2061340;28;1006;-57
2021/11/17 04:13:50;;;;;;;;;;;;;;;21.73;50.93;101350.78;2084522;28;827;-58
2021/11/17 04:14:56;;;;;;;;;;;;;;;21.79;50.33;101346.09;2084187;28;796;-58
2021/11/17 04:15:59;;;;;;;;;;;;;;;21.79;50.28;101351.50;2084499;28;755;-58
2021/11/17 04:16:59;;;;;;;;;;;;;;;21.72;50.76;101346.31;2084404;28;799;-57
2021/11/17 04:18:06;;;;;;;;;;;;;;;21.68;50.96;101357.22;2084283;28;1958;-58
2021/11/17 04:19:15;;;;;;;;;;;;;;;21.67;51.71;101355.47;2084459;28;1013;-58
2021/11/17 04:20:22;;;;;;;;;;;;;;;21.66;51.04;101351.00;2084419;28;981;-57
2021/11/17 04:21:28;;;;;;;;;;;;;;;21.73;50.02;101352.59;2084425;28;1064;-58
2021/11/17 04:22:41;;;;;;;;;;;;;;;21.70;51.17;101358.06;2084373;28;970;-58
2021/11/17 04:23:44;;;;;;;;;;;;;;;21.68;50.67;101351.84;2084411;28;950;-57
2021/11/17 04:24:54;;;;;;;;;;;;;;;21.73;50.29;101353.47;2084348;28;1021;-58
2021/11/17 04:26:01;;;;;;;;;;;;;;;21.67;50.79;101348.28;2084102;28;827;-57
2021/11/17 04:27:20;;;;;;;;;;;;;;;21.74;51.26;101339.06;2084302;28;1001;-57
2021/11/17 04:28:27;;;;;;;;;;;;;;;21.75;50.44;101342.63;2084356;28;883;-58
2021/11/17 04:29:36;;;;;;;;;;;;;;;21.69;50.05;101341.03;2084356;28;929;-58
2021/11/17 04:30:45;;;;;;;;;;;;;;;21.72;50.76;101331.94;2084299;28;850;-58
2021/11/17 04:31:52;;;;;;;;;;;;;;;21.71;49.66;101338.25;2084143;28;1072;-57
2021/11/17 04:33:21;;;;;;;;;;;;;;;21.75;52.04;101339.94;2084329;28;989;-58
2021/11/17 04:34:21;;;;;;;;;;;;;;;21.71;49.92;101332.88;2066902;28;1237;-58
2021/11/17 04:35:24;;;;;;;;;;;;;;;21.73;51.12;101336.41;2066959;28;942;-57
2021/11/17 04:36:30;;;;;;;;;;;;;;;21.70;50.57;101336.50;2066991;28;1060;-60
2021/11/17 04:37:33;;;;;;;;;;;;;;;21.67;50.57;101323.09;2066810;28;1972;-57
2021/11/17 04:38:33;;;;;;;;;;;;;;;21.69;51.01;101330.25;2072495;28;1219;-58
2021/11/17 04:39:52;;;;;;;;;;;;;;;21.67;52.31;101332.09;2075036;28;954;-58
2021/11/17 04:41:04;;;;;;;;;;;;;;;21.65;51.13;101324.97;2075075;28;1005;-57
2021/11/17 04:42:14;;;;;;;;;;;;;;;21.74;50.18;101327.38;2075119;28;962;-57
2021/11/17 04:43:14;;;;;;;;;;;;;;;21.72;50.79;101327.44;2075056;28;851;-58
2021/11/17 04:44:38;;;;;;;;;;;;;;;21.74;50.60;101324.69;2075067;28;866;-58
2021/11/17 04:45:44;;;;;;;;;;;;;;;21.70;51.64;101325.72;2075027;28;941;-57
2021/11/17 04:47:10;;;;;;;;;;;;;;;21.67;50.14;101321.31;2075038;28;954;-57
2021/11/17 04:48:13;;;;;;;;;;;;;;;21.61;50.48;101319.63;2072044;28;1091;-58
2021/11/17 04:49:16;;;;;;;;;;;;;;;21.71;49.61;101320.28;2075023;28;970;-57
2021/11/17 04:50:29;;;;;;;;;;;;;;;21.64;51.28;101310.63;2075137;28;1081;-57
2021/11/17 04:51:48;;;;;;;;;;;;;;;21.63;51.47;101308.84;2075047;28;780;-59
2021/11/17 04:52:48;;;;;;;;;;;;;;;21.71;50.04;101320.28;2075023;28;798;-58
2021/11/17 04:53:48;;;;;;;;;;;;;;;21.68;51.22;101311.41;2074953;28;832;-59
2021/11/17 04:54:54;;;;;;;;;;;;;;;21.68;51.63;101308.69;2074977;28;1187;-59
2021/11/17 04:56:10;;;;;;;;;;;;;;;21.74;50.87;101308.50;2075057;28;946;-58
2021/11/17 04:57:28;;;;;;;;;;;;;;;21.72;51.63;101303.19;2075048;28;791;-57
2021/11/17 04:58:29;;;;;;;;;;;;;;;21.66;50.86;101306.06;2075003;28;1081;-58
2021/11/17 04:59:47;;;;;;;;;;;;;;;21.70;49.29;101306.84;2074677;28;836;-58
2021/11/17 05:01:06;;;;;;;;;;;;;;;21.72;50.68;101308.56;2075121;28;957;-58
2021/11/17 05:02:15;;;;;;;;;;;;;;;21.79;50.11;101297.56;2075007;28;1378;-57
2021/11/17 05:03:27;;;;;;;;;;;;;;;21.83;49.65;101301.94;2075037;28;811;-58
2021/11/17 05:04:52;;;;;;;;;;;;;;;21.81;50.20;101295.72;2075005;28;1009;-58
2021/11/17 05:06:11;;;;;;;;;;;;;;;22.58;49.09;101295.03;2074692;28;1001;-58
2021/11/17 05:07:17;;;;;;;;;;;;;;;22.87;48.20;101294.00;2074531;28;875;-57
2021/11/17 05:08:35;;;;;;;;;;;;;;;23.02;48.06;101279.06;2075009;28;859;-57
2021/11/17 05:10:02;;;;;;;;;;;;;;;23.15;48.13;101281.31;2074949;28;1025;-59
2021/11/17 05:11:12;;;;;;;;;;;;;;;23.27;49.27;101291.66;2050849;28;1182;-59
2021/11/17 05:12:27;;;;;;;;;;;;;;;23.23;48.21;101285.50;2058635;28;803;-57
2021/11/17 05:13:36;;;;;;;;;;;;;;;23.35;47.73;101285.97;2060591;28;974;-58
2021/11/17 05:14:55;;;;;;;;;;;;;;;23.48;46.98;101284.56;2066807;28;839;-58
2021/11/17 05:16:04;;;;;;;;;;;;;;;23.53;47.89;101277.16;2066799;28;974;-58
2021/11/17 05:17:19;;;;;;;;;;;;;;;23.64;45.48;101279.44;2066800;28;781;-58
2021/11/17 05:18:28;;;;;;;;;;;;;;;23.73;46.65;101283.59;2058660;28;1906;-57
2021/11/17 05:19:49;;;;;;;;;;;;;;;23.78;48.10;101278.00;2059833;28;1043;-58
2021/11/17 05:21:03;;;;;;;;;;;;;;;23.89;46.79;101280.28;2066680;28;1045;-57
2021/11/17 05:22:04;;;;;;;;;;;;;;;23.89;46.65;101274.88;2066696;28;769;-56
2021/11/17 05:23:11;;;;;;;;;;;;;;;23.92;46.74;101272.91;2066534;28;994;-56
2021/11/17 05:24:21;;;;;;;;;;;;;;;23.93;46.67;101274.66;2066736;28;1010;-56
2021/11/17 05:25:21;;;;;;;;;;;;;;;24.01;47.71;101270.81;2066710;28;760;-55
2021/11/17 05:26:30;;;;;;;;;;;;;;;24.03;46.50;101277.03;2066542;28;819;-55
2021/11/17 05:27:53;;;;;;;;;;;;;;;24.08;46.51;101273.22;2066681;28;780;-56
2021/11/17 05:29:02;;;;;;;;;;;;;;;24.12;46.90;101268.53;2061298;28;1439;-56
2021/11/17 05:30:11;;;;;;;;;;;;;;;24.12;47.50;101272.13;2066625;28;1005;-55
2021/11/17 05:31:19;;;;;;;;;;;;;;;24.20;46.58;101269.09;2066640;28;1006;-57
2021/11/17 05:32:26;;;;;;;;;;;;;;;24.15;46.56;101275.63;2066708;28;890;-57
2021/11/17 05:33:35;;;;;;;;;;;;;;;24.25;48.01;101271.59;2066668;28;883;-57
2021/11/17 05:34:53;;;;;;;;;;;;;;;24.21;45.92;101269.97;2066500;28;813;-57
2021/11/17 05:36:00;;;;;;;;;;;;;;;24.26;47.36;101260.72;2058508;28;1014;-58
2021/11/17 05:37:05;;;;;;;;;;;;;;;24.39;46.55;101261.06;2059067;28;825;-57
2021/11/17 05:38:21;;;;;;;;;;;;;;;24.38;47.16;101267.44;2066502;28;1894;-57
2021/11/17 05:39:28;;;;;;;;;;;;;;;24.41;46.84;101266.44;2066695;28;996;-58
2021/11/17 05:40:40;;;;;;;;;;;;;;;24.39;46.86;101261.06;2066334;28;855;-58
2021/11/17 05:41:50;;;;;;;;;;;;;;;24.42;46.67;101255.53;2066608;28;1094;-57
2021/11/17 05:43:04;;;;;;;;;;;;;;;24.41;47.66;101256.47;2066639;28;1206;-57
2021/11/17 05:44:11;;;;;;;;;;;;;;;24.45;47.87;101251.78;2066677;28;807;-60
2021/11/17 05:45:26;;;;;;;;;;;;;;;24.45;47.22;101256.34;2066555;28;863;-57
2021/11/17 05:46:29;;;;;;;;;;;;;;;24.48;49.07;101254.34;2066307;28;772;-57
2021/11/17 05:48:08;;;;;;;;;;;;;;;24.53;46.75;101248.75;2066610;28;784;-58
2021/11/17 05:49:08;;;;;;;;;;;;;;;24.56;46.43;101251.34;2050352;28;1069;-59
2021/11/17 05:50:08;;;;;;;;;;;;;;;24.50;46.46;101257.03;2050517;29;796;-57
2021/11/17 05:51:17;;;;;;;;;;;;;;;24.54;46.99;101253.22;2050469;29;902;-57
2021/11/17 05:52:33;;;;;;;;;;;;;;;24.56;46.78;101246.78;2050456;29;852;-58
2021/11/17 05:53:45;;;;;;;;;;;;;;;24.61;48.68;101249.31;2050552;29;1010;-57
2021/11/17 05:54:51;;;;;;;;;;;;;;;24.57;47.44;101247.69;2050426;29;938;-57
2021/11/17 05:56:12;;;;;;;;;;;;;;;24.62;45.83;101255.59;2050551;29;899;-58
2021/11/17 05:57:15;;;;;;;;;;;;;;;24.64;44.36;101248.28;2050396;29;1101;-58
2021/11/17 05:58:34;;;;;;;;;;;;;;;24.66;45.01;101244.56;2050260;29;1914;-58
2021/11/17 05:59:34;;;;;;;;;;;;;;;24.74;47.29;101246.97;2050123;29;875;-57
2021/11/17 06:00:34;;;;;;;;;;;;;;;24.71;46.19;101236.22;2050421;29;796;-58
2021/11/17 06:01:43;;;;;;;;;;;;;;;24.80;45.65;101234.94;2050297;29;1017;-58
2021/11/17 06:02:49;;;;;;;;;;;;;;;24.71;46.68;101229.00;2050468;29;907;-57
2021/11/17 06:04:02;;;;;;;;;;;;;;;24.65;48.35;101231.97;2050393;29;856;-58
2021/11/17 06:05:02;;;;;;;;;;;;;;;24.71;46.46;101223.56;2050239;29;780;-57
2021/11/17 06:06:02;;;;;;;;;;;;;;;24.75;46.09;101227.03;2050327;29;1062;-57
2021/11/17 06:07:02;;;;;;;;;;;;;;;24.79;47.96;101219.66;2050414;29;985;-57
2021/11/17 06:08:03;;;;;;;;;;;;;;;24.76;45.20;101211.66;2049835;29;1227;-57
2021/11/17 06:09:05;;;;;;;;;;;;;;;24.81;44.53;101209.63;2050365;29;942;-59
2021/11/17 06:10:07;;;;;;;;;;;;;;;24.83;45.58;101213.13;2050318;29;824;-57
2021/11/17 06:11:07;;;;;;;;;;;;;;;24.82;45.86;101211.38;2050354;29;1052;-57
2021/11/17 06:12:09;;;;;;;;;;;;;;;24.82;46.14;101208.66;2050286;29;954;-58
2021/11/17 06:13:11;;;;;;;;;;;;;;;24.82;48.37;101206.84;2050218;29;1037;-57
2021/11/17 06:14:14;;;;;;;;;;;;;;;24.70;48.01;101208.28;2050093;29;1030;-58
2021/11/17 06:15:15;;;;;;;;;;;;;;;24.68;49.34;101210.16;2050343;29;859;-57
2021/11/17 06:16:15;;;;;;;;;;;;;;;24.68;46.95;101210.16;2050300;29;903;-57
2021/11/17 06:17:21;;;;;;;;;;;;;;;24.67;47.94;101205.69;2050254;29;844;-58
2021/11/17 06:18:26;;;;;;;;;;;;;;;24.75;47.25;101204.47;2049977;28;1903;-58
2021/11/17 06:19:28;;;;;;;;;;;;;;;24.77;45.40;101205.28;2049735;29;998;-57
2021/11/17 06:20:29;;;;;;;;;;;;;;;24.79;46.60;101206.09;2066077;28;904;-59
2021/11/17 06:21:29;;;;;;;;;;;;;;;24.78;48.06;101204.34;2091663;28;791;-57
2021/11/17 06:22:31;;;;;;;;;;;;;;;24.76;45.31;101206.25;2091690;28;808;-58
2021/11/17 06:23:34;;;;;;;;;;;;;;;24.84;44.00;101201.34;2091668;28;788;-58
2021/11/17 06:24:35;;;;;;;;;;;;;;;24.86;48.18;101202.16;2091400;28;815;-57
2021/11/17 06:25:37;;;;;;;;;;;;;;;24.79;49.27;101208.81;2091767;28;981;-57
2021/11/17 06:26:40;;;;;;;;;;;;;;;24.85;47.75;101204.00;2091365;28;768;-58
2021/11/17 06:27:47;;;;;;;;;;;;;;;24.87;46.11;101203.91;2091513;28;1871;-57
2021/11/17 06:28:50;;;;;;;;;;;;;;;24.86;43.08;101191.31;2091683;28;863;-58
2021/11/17 06:29:50;;;;;;;;;;;;;;;24.80;49.16;101195.22;2091592;28;874;-58
2021/11/17 06:30:52;;;;;;;;;;;;;;;24.83;46.61;101191.47;2091673;28;933;-57
2021/11/17 06:31:54;;;;;;;;;;;;;;;24.79;46.40;101189.84;2091685;28;943;-57
2021/11/17 06:32:57;;;;;;;;;;;;;;;24.82;45.32;101192.41;2091230;28;802;-58
2021/11/17 06:33:57;;;;;;;;;;;;;;;24.86;45.65;101191.31;2091623;28;802;-58
2021/11/17 06:34:59;;;;;;;;;;;;;;;24.84;45.76;101193.22;2091581;28;1263;-58
2021/11/17 06:35:59;;;;;;;;;;;;;;;24.88;46.16;101192.13;2091492;28;1060;-59
2021/11/17 06:37:01;;;;;;;;;;;;;;;24.92;45.92;101187.47;2091557;28;1186;-57
2021/11/17 06:38:02;;;;;;;;;;;;;;;24.92;45.40;101188.34;2091457;28;1889;-57
2021/11/17 06:39:02;;;;;;;;;;;;;;;24.91;44.51;101183.88;2091608;28;870;-58
2021/11/17 06:40:04;;;;;;;;;;;;;;;24.83;45.68;101186.03;2091562;28;937;-58
2021/11/17 06:41:05;;;;;;;;;;;;;;;24.88;48.97;101192.13;2091558;28;1056;-57
2021/11/17 06:42:07;;;;;;;;;;;;;;;24.86;47.29;101191.31;2091555;28;775;-59
2021/11/17 06:43:09;;;;;;;;;;;;;;;24.81;47.51;101186.13;2091280;28;780;-57
2021/11/17 06:44:09;;;;;;;;;;;;;;;24.83;45.81;101180.63;2091444;28;859;-58
2021/11/17 06:45:15;;;;;;;;;;;;;;;24.86;48.15;101183.19;2091496;28;958;-58
2021/11/17 06:46:15;;;;;;;;;;;;;;;24.94;45.05;101178.31;2091297;28;1015;-57
2021/11/17 06:47:15;;;;;;;;;;;;;;;25.01;47.26;101182.50;2091315;28;847;-58
2021/11/17 06:48:16;;;;;;;;;;;;;;;25.02;49.15;101173.41;2091464;28;997;-57
2021/11/17 06:49:16;;;;;;;;;;;;;;;25.00;47.67;101178.03;2091497;28;762;-58
2021/11/17 06:50:18;;;;;;;;;;;;;;;24.97;43.93;101178.16;2091072;28;929;-57
2021/11/17 06:51:18;;;;;;;;;;;;;;;24.97;45.97;101172.75;2091443;28;934;-57
2021/11/17 06:52:19;;;;;;;;;;;;;;;24.94;47.71;101169.31;2091525;28;839;-58
2021/11/17 06:53:21;;;;;;;;;;;;;;;24.95;46.02;101171.94;2091498;28;981;-57
2021/11/17 06:54:21;;;;;;;;;;;;;;;24.97;48.55;101164.63;2091494;28;766;-57
2021/11/17 06:55:21;;;;;;;;;;;;;;;24.90;45.70;101167.69;2091378;28;752;-58
2021/11/17 06:56:22;;;;;;;;;;;;;;;24.92;47.03;101163.94;2091243;28;1003;-57
2021/11/17 06:57:22;;;;;;;;;;;;;;;24.95;47.58;101166.50;2091525;28;776;-57
2021/11/17 06:58:23;;;;;;;;;;;;;;;24.96;46.83;101165.56;2091064;28;1918;-58
2021/11/17 06:59:23;;;;;;;;;;;;;;;24.96;50.58;101165.56;2091371;28;772;-58
2021/11/17 07:00:25;;;;;;;;;;;;;;;25.01;46.80;101165.38;2091381;28;834;-59
2021/11/17 07:01:25;;;;;;;;;;;;;;;25.05;49.24;101157.94;2091404;28;969;-57
2021/11/17 07:02:25;;;;;;;;;;;;;;;24.99;45.16;101165.41;2091375;28;1024;-57
2021/11/17 07:03:26;;;;;;;;;;;;;;;25.04;46.87;101162.47;2091437;28;775;-58
2021/11/17 07:04:27;;;;;;;;;;;;;;;25.12;48.77;101162.13;2091397;28;922;-57
2021/11/17 07:05:27;;;;;;;;;;;;;;;25.04;45.70;101162.47;2091453;28;1040;-58
2021/11/17 07:06:27;;;;;;;;;;;;;;;25.02;46.74;101165.28;2091095;28;909;-58
2021/11/17 07:07:27;;;;;;;;;;;;;;;25.01;46.51;101163.53;2091369;28;841;-57
2021/11/17 07:08:28;;;;;;;;;;;;;;;25.07;46.50;101162.34;2091395;28;1024;-58
2021/11/17 07:09:28;;;;;;;;;;;;;;;25.09;48.05;101167.69;2082475;28;922;-57
2021/11/17 07:10:28;;;;;;;;;;;;;;;25.11;47.78;101161.25;2082669;28;954;-57
2021/11/17 07:11:30;;;;;;;;;;;;;;;25.07;45.79;101169.59;2091218;28;1232;-58
2021/11/17 07:12:30;;;;;;;;;;;;;;;25.05;44.57;101163.38;2091278;28;791;-57
2021/11/17 07:13:31;;;;;;;;;;;;;;;25.02;48.58;101162.56;2091382;28;650;-58
2021/11/17 07:14:31;;;;;;;;;;;;;;;25.07;48.90;101156.91;2091177;28;784;-57
2021/11/17 07:15:31;;;;;;;;;;;;;;;25.07;47.69;101159.63;2091213;28;1036;-57
2021/11/17 07:16:33;;;;;;;;;;;;;;;24.96;45.85;101157.44;2091362;28;846;-58
2021/11/17 07:17:33;;;;;;;;;;;;;;;25.04;47.08;101154.34;2082389;28;1886;-58
2021/11/17 07:18:34;;;;;;;;;;;;;;;25.07;44.33;101153.34;2082539;28;829;-58
2021/11/17 07:19:35;;;;;;;;;;;;;;;25.09;49.54;101152.31;2089979;28;1609;-57
2021/11/17 07:20:36;;;;;;;;;;;;;;;25.12;48.10;101140.44;2084618;28;1760;-57
2021/11/17 07:21:38;;;;;;;;;;;;;;;25.12;44.87;101145.88;2085260;28;1894;-58
2021/11/17 07:22:38;;;;;;;;;;;;;;;25.15;43.95;101146.59;2087331;28;1922;-57
2021/11/17 07:23:38;;;;;;;;;;;;;;;25.18;47.93;101132.03;2090947;28;1484;-57
2021/11/17 07:24:39;;;;;;;;;;;;;;;25.10;45.44;101131.50;2091046;28;1309;-57
2021/11/17 07:25:39;;;;;;;;;;;;;;;25.10;48.21;101135.09;2090664;28;1291;-57
2021/11/17 07:26:39;;;;;;;;;;;;;;;25.07;46.08;101132.53;2091005;28;1523;-58
2021/11/17 07:27:40;;;;;;;;;;;;;;;25.09;48.31;101137.88;2090440;28;1568;-59
2021/11/17 07:28:41;;;;;;;;;;;;;;;25.13;48.07;101129.53;2082185;28;1533;-57
2021/11/17 07:29:41;;;;;;;;;;;;;;;25.12;46.77;101135.03;2074123;28;1553;-58
2021/11/17 07:30:41;;;;;;;;;;;;;;;25.12;50.35;101132.31;2083686;28;1560;-57
2021/11/17 07:31:42;;;;;;;;;;;;;;;25.17;47.02;101139.25;2092694;28;1518;-58
2021/11/17 07:32:42;;;;;;;;;;;;;;;25.11;46.82;101130.56;2092681;28;1314;-58
2021/11/17 07:33:43;;;;;;;;;;;;;;;25.18;49.69;101159.13;2092459;28;1235;-57
2021/11/17 07:34:43;;;;;;;;;;;;;;;25.10;47.25;101153.19;2092792;28;1271;-58
2021/11/17 07:35:45;;;;;;;;;;;;;;;25.16;45.93;101158.31;2092714;28;1337;-57
2021/11/17 07:36:45;;;;;;;;;;;;;;;25.15;49.89;101151.16;2092657;28;821;-57
2021/11/17 07:37:46;;;;;;;;;;;;;;;25.10;45.63;101150.50;2092846;28;1973;-59
2021/11/17 07:38:47;;;;;;;;;;;;;;;25.08;47.10;101152.38;2092926;28;1162;-57
2021/11/17 07:39:47;;;;;;;;;;;;;;;25.11;47.34;101157.66;2092683;28;1447;-58
2021/11/17 07:40:48;;;;;;;;;;;;;;;25.06;49.28;101157.00;2092950;28;661;-57
2021/11/17 07:41:50;;;;;;;;;;;;;;;25.00;48.51;101156.34;2092910;28;981;-57
2021/11/17 07:42:50;;;;;;;;;;;;;;;25.08;48.32;101150.53;2092544;28;1048;-58
2021/11/17 07:43:50;;;;;;;;;;;;;;;25.15;49.88;101153.84;2092932;28;838;-57
2021/11/17 07:44:52;;;;;;;;;;;;;;;25.11;48.52;101150.41;2092932;28;1023;-58
2021/11/17 07:45:52;;;;;;;;;;;;;;;25.00;47.57;101159.06;2093004;28;832;-57
2021/11/17 07:46:53;;;;;;;;;;;;;;;25.04;47.53;101151.63;2092941;28;1153;-57
2021/11/17 07:47:54;;;;;;;;;;;;;;;25.09;47.26;101152.31;2092840;28;877;-58
2021/11/17 07:48:56;;;;;;;;;;;;;;;25.09;48.75;101157.72;2092886;28;771;-57
2021/11/17 07:49:57;;;;;;;;;;;;;;;25.11;50.19;101155.81;2092875;28;1027;-58
2021/11/17 07:50:57;;;;;;;;;;;;;;;25.09;49.09;101148.72;2092762;28;851;-58
2021/11/17 07:51:58;;;;;;;;;;;;;;;25.12;48.01;101151.28;2092892;28;823;-57
2021/11/17 07:52:58;;;;;;;;;;;;;;;25.10;47.68;101145.06;2092751;28;834;-59
2021/11/17 07:53:58;;;;;;;;;;;;;;;25.09;48.03;101146.00;2092861;28;783;-57
2021/11/17 07:54:59;;;;;;;;;;;;;;;25.09;47.98;101146.88;2090689;28;1782;-57
2021/11/17 07:56:00;;;;;;;;;;;;;;;25.08;47.92;101146.97;2090855;28;1671;-58
2021/11/17 07:57:01;;;;;;;;;;;;;;;25.08;48.90;101144.25;2086801;28;1700;-57
2021/11/17 07:58:02;;;;;;;;;;;;;;;25.09;51.43;101146.00;2086649;28;1943;-58
2021/11/17 07:59:03;;;;;;;;;;;;;;;25.11;48.23;101144.13;2085623;28;1490;-58
2021/11/17 08:00:05;;;;;;;;;;;;;;;25.13;48.79;101142.22;2087993;28;1590;-57
2021/11/17 08:01:06;;;;;;;;;;;;;;;25.14;46.36;101152.09;2084986;28;1494;-61
2021/11/17 08:02:08;;;;;;;;;;;;;;;25.15;46.88;101145.72;2084502;28;1036;-61
2021/11/17 08:03:09;;;;;;;;;;;;;;;25.21;46.95;101141.81;2085098;28;1621;-59
2021/11/17 08:04:10;;;;;;;;;;;;;;;25.23;50.81;101143.53;2084607;28;2047;-58
2021/11/17 08:05:11;;;;;;;;;;;;;;;25.19;48.01;101144.63;2088907;28;1671;-58
2021/11/17 08:06:13;;;;;;;;;;;;;;;25.16;49.65;101142.91;2092315;28;1898;-60
2021/11/17 08:07:15;;;;;;;;;;;;;;;25.18;46.67;101142.88;2092459;28;1826;-59
2021/11/17 08:08:15;;;;;;;;;;;;;;;25.24;46.80;101144.38;2085597;28;2014;-60
2021/11/17 08:09:17;;;;;;;;;;;;;;;25.26;48.37;101142.47;2084717;28;1873;-59
2021/11/17 08:10:25;;;;;;;;;;;;;;;25.21;47.40;101145.44;2084463;28;855;-60
2021/11/17 08:11:25;;;;;;;;;;;;;;;25.20;53.79;101132.84;2088278;28;1749;-60
2021/11/17 08:12:25;;;;;;;;;;;;;;;25.18;46.66;101126.59;2088992;28;1726;-61
2021/11/17 08:13:26;;;;;;;;;;;;;;;25.21;50.14;101125.56;2086343;28;1838;-60
2021/11/17 08:14:27;;;;;;;;;;;;;;;25.25;48.38;101128.06;2086752;28;2040;-60